• Join FlightAware (Why Join?)
  • Login
  • US Flag 
03:47AM EST


 

Airport Tracker/Info


-or-


 

Live Flight TrackerFlight Track Log ✈ ASQ5190 ✈ 10-May-2012 ✈ KATL - KCSG

Flight Track Log - Related Links

Times and Time Zones

All times are in EDT time to prevent confusion due to time zone crossing. See the ASQ5190 flight status page for this flight to view local times or setup timezone preferences in your user account.

Time Position Orientation Groundspeed Altitude Reporting Facility
EDT Latitude Longitude Course Direction KTS MPH feet Rate Location/Type
09:43AM 33.6333 -84.4667 244° Southwest 170 196 2,800  Level Atlanta TRACON
09:44AM 33.6000 -84.5500 212° Southwest 265 305 5,600 2,880 Climbing Atlanta TRACON
09:45AM 33.5333 -84.6000 198° South 289 333 8,900 2,160 Climbing Atlanta TRACON
09:46AM 33.4500 -84.6333 198° South 310 357 10,000 540 Climbing Atlanta TRACON
09:47AM 33.3667 -84.6667 188° South 334 384 10,000  Level Atlanta TRACON
09:48AM 33.2667 -84.6833 196° South 345 397 10,000  Level Atlanta TRACON
09:49AM 33.1667 -84.7167 196° South 352 405 10,000  Level Atlanta TRACON
09:50AM 33.0667 -84.7500 199° South 357 411 10,000  Level Atlanta TRACON
09:51AM 32.9833 -84.7833 196° South 358 412 10,000 -120 Level Atlanta TRACON
09:52AM 32.8833 -84.8167 203° Southwest 308 354 9,800 -840 Descending Atlanta TRACON
09:53AM 32.8167 -84.8500 203° Southwest 280 322 8,400 -1,500 Descending Atlanta TRACON
09:54AM 32.7500 -84.8833 212° Southwest 278 320 6,800 -1,560 Descending Atlanta TRACON
09:55AM 32.6833 -84.9333 203° Southwest 264 304 5,300 -900 Descending Atlanta TRACON
09:56AM 32.6167 -84.9667 212° Southwest 268 308 5,000 -180 Descending Atlanta TRACON
09:57AM 32.5500 -85.0167 232° Southwest 260 299 5,000 -300 Level Atlanta TRACON
09:58AM 32.5167 -85.0667 164° South 209 241 4,400 -1,080 Descending Atlanta TRACON
09:59AM 32.4667 -85.0500 68° East 189 217 3,000 -1,440 Descending Atlanta TRACON
10:00AM 32.4833 -85.0000 59° Northeast 145 167 1,700 -1,200 Descending Atlanta TRACON
10:01AM 32.5000 -84.9667 91° East 135 155 700 -1,020 Descending Atlanta TRACON
10:09AM 32.4997 -84.9345 91° East  Level FlightAware Approximate